This is the latest recevied weather packets stored in our database for station/object R6DH-11. If no packets are shown the sender has not sent any weather packets the latest 1 day(s).
| Time | Temp. | Humidity | Pressure | Rain* | Wind** | Luminosity | Snow |
|---|---|---|---|---|---|---|---|
| 1778088703 | 16.67° C | 53% | 1013.9 hPa | - | - | - | - |
| 1778086893 | 17.22° C | 52% | 1013.7 hPa | - | - | - | - |
| 1778085090 | 17.78° C | 48% | 1013.6 hPa | - | - | - | - |
| 1778083287 | 18.89° C | 44% | 1013.3 hPa | - | - | - | - |
| 1778079718 | 20.56° C | 37% | 1013.1 hPa | - | - | - | - |
| 1778077915 | 21.11° C | 37% | 1013.2 hPa | - | - | - | - |
| 1778071604 | 22.78° C | 34% | 1013.2 hPa | - | - | - | - |
| 1778065293 | 25° C | 31% | 1013.4 hPa | - | - | - | - |
| 1778063490 | 25° C | 29% | 1013.5 hPa | - | - | - | - |
| 1778062588 | 25° C | 30% | 1013.5 hPa | - | - | - | - |
| 1778060785 | 23.33° C | 31% | 1013.6 hPa | - | - | - | - |
| 1778058981 | 26.67° C | 27% | 1013.6 hPa | - | - | - | - |
| 1778058118 | 23.33° C | 29% | 1012.6 hPa | - | - | - | - |
| 1778055413 | 23.33° C | 34% | 1013.9 hPa | - | - | - | - |
| 1778053610 | 23.89° C | 30% | 1014 hPa | - | - | - | - |
| 1778051807 | 22.22° C | 33% | 1014 hPa | - | - | - | - |
| 1778050912 | 20° C | 40% | 1014 hPa | - | - | - | - |
| 1778050004 | 21.11° C | 35% | 1013.9 hPa | - | - | - | - |
| 1778047299 | 19.44° C | 44% | 1014 hPa | - | - | - | - |
| 1778044594 | 16.67° C | 53% | 1014 hPa | - | - | - | - |
| 1778043693 | 16.11° C | 52% | 1013.9 hPa | - | - | - | - |
| 1778042791 | 14.44° C | 56% | 1013.9 hPa | - | - | - | - |
| 1778041890 | 13.33° C | 64% | 1013.8 hPa | - | - | - | - |
| 1778040988 | 12.22° C | 68% | 1013.8 hPa | - | - | - | - |
| 1778039185 | 10° C | 79% | 1013.9 hPa | - | - | - | - |
* Rain since midnight (hover to see other rain measurements)
** Current wind speed in m/s (hover to see current wind gust speed)